ADDS METAR Data INFO
IDs: Format: Raw Decoded Include TAF

Data at: 0025 UTC 15 Dec 2017

KUAO 142353Z 33005KT 10SM BKN240 06/M02 A3029 RMK AO2 SLP259 T00561022 10083 20028 55005
KUAO 142253Z 02006KT 10SM BKN250 07/M02 A3029 RMK AO2 SLP257 T00671017
KUAO 142153Z 35008KT 10SM BKN250 07/M02 A3030 RMK AO2 SLP261 T00721017
KUAO 142053Z 01008KT 10SM BKN250 08/M02 A3031 RMK AO2 SLP263 T00831017 58011
KUAO 141953Z 36008KT 10SM BKN250 08/M02 A3033 RMK AO2 SLP270 T00781017
KUAO 141853Z 00000KT 10SM BKN250 06/M01 A3034 RMK AO2 SLP273 T00611011
KUAO 141753Z 08004KT 10SM SCT250 03/M01 A3034 RMK AO2 SLP275 T00281011 10028 21033 50005
KUAO 141653Z 00000KT 10SM SCT200 00/M02 A3035 RMK AO2 SLP278 T00001022
KUAO 141553Z 00000KT 10SM SCT200 M02/M03 A3033 RMK AO2 SLP273 T10221033
KUAO 141453Z 00000KT 8SM SCT200 M03/M04 A3033 RMK AO2 SLP270 T10281039 52001
KUAO 141353Z AUTO 00000KT 9SM CLR M01/M03 A3033 RMK AO2 SLP270 T10111033
KUAO 141253Z AUTO 00000KT 10SM CLR M01/M03 A3032 RMK AO2 SLP269 T10111033
KUAO 141153Z AUTO 02006KT 10SM CLR 02/M03 A3032 RMK AO2 SLP270 T00171028 10044 20011 56002
KUAO 141053Z AUTO 35005KT 10SM CLR 03/M02 A3033 RMK AO2 SLP270 T00331022
KUAO 140953Z AUTO 36006KT 10SM CLR 02/M02 A3032 RMK AO2 SLP268 T00221022
KUAO 140853Z AUTO 36007KT 10SM CLR 03/M02 A3033 RMK AO2 SLP270 T00331022 50001
KUAO 140753Z AUTO 35007KT 10SM CLR 04/M02 A3033 RMK AO2 SLP272 T00441022 400941011
KUAO 140653Z AUTO 35009KT 10SM CLR 04/M02 A3033 RMK AO2 SLP270 T00441022
KUAO 140553Z AUTO 02007KT 10SM CLR 04/M02 A3033 RMK AO2 SLP270 T00441022 10067 20022 55000
KUAO 140453Z AUTO 36011KT 10SM CLR 05/M02 A3032 RMK AO2 SLP269 T00501022
KUAO 140353Z 36010KT 10SM CLR 04/M02 A3032 RMK AO2 SLP268 T00441022
KUAO 140253Z 01005KT 10SM CLR 03/M03 A3033 RMK AO2 SLP270 T00281028 58002
KUAO 140153Z 36009KT 10SM CLR 04/M02 A3033 RMK AO2 SLP271 T00441022
KUAO 140053Z 36008KT 10SM CLR 05/M02 A3034 RMK AO2 SLP273 T00501022
KUAO 132353Z 36007KT 10SM SCT200 07/M02 A3033 RMK AO2 SLP272 T00721022 10094 20044 55002
KUAO 132253Z 03009KT 10SM SCT200 08/M02 A3033 RMK AO2 SLP271 T00831022
KUAO 132153Z 02010KT 10SM SCT200 09/M02 A3033 RMK AO2 SLP270 T00941022
KUAO 132053Z 02010KT 10SM SCT200 08/M02 A3034 RMK AO2 SLP273 T00831017 58021
KUAO 131953Z 02013KT 10SM CLR 07/M02 A3036 RMK AO2 SLP282 T00721022
KUAO 131853Z 01010KT 10SM FEW250 07/M01 A3038 RMK AO2 SLP289 T00671011
KUAO 131753Z 01008KT 10SM FEW250 04/M02 A3040 RMK AO2 SLP295 T00441017 10044 21011 51007
KUAO 131653Z 01008KT 10SM CLR 02/M02 A3039 RMK AO2 SLP293 T00221022
KUAO 131553Z 01008KT 10SM CLR 01/M03 A3039 RMK AO2 SLP290 T00111028
KUAO 131453Z 36003KT 10SM CLR 00/M03 A3038 RMK AO2 SLP288 T00001028 56002
KUAO 131353Z AUTO 09003KT 10SM CLR 01/M03 A3038 RMK AO2 SLP289 T00061028
KUAO 131253Z AUTO 34005KT 10SM CLR 02/M03 A3037 RMK AO2 SLP286 T00171033